Time;durP1;ratioP1;P1;durP2;ratioP2;P2;SDS_P1;SDS_P2;PMS_P1;PMS_P2;Temp;Humidity;BMP_temperature;BMP_pressure;BME280_temperature;BME280_humidity;BME280_pressure;Samples;Min_cycle;Max_cycle;Signal;HPM_P1;HPM_P2
2022/12/19 00:01:38;;;;;;;11.80;8.53;;;2.00;66.30;;;4.92;49.58;102083.19;5053976;28;20195;-51
2022/12/19 00:04:10;;;;;;;14.30;9.50;;;2.10;66.50;;;4.97;50.30;102083.69;5054036;28;20240;-53
2022/12/19 00:06:38;;;;;;;16.07;8.70;;;2.10;66.40;;;4.97;49.84;102074.06;5054025;28;20254;-53
2022/12/19 00:09:11;;;;;;;14.10;9.27;;;2.10;66.30;;;4.96;49.84;102072.44;5053560;28;20260;-53
2022/12/19 00:11:39;;;;;;;14.93;10.23;;;2.20;66.20;;;4.99;49.48;102066.97;5053995;28;20203;-54
2022/12/19 00:14:09;;;;;;;13.00;9.33;;;2.20;66.20;;;5.01;49.71;102059.06;5053796;28;20203;-53
2022/12/19 00:16:36;;;;;;;15.23;9.23;;;2.30;67.00;;;5.04;49.50;102054.44;5053960;28;20254;-51
2022/12/19 00:19:03;;;;;;;14.50;9.90;;;2.30;66.20;;;5.04;50.54;102053.66;5054271;28;20624;-53
2022/12/19 00:21:33;;;;;;;15.23;9.87;;;2.30;66.20;;;5.02;50.20;102061.56;5053721;28;20191;-54
2022/12/19 00:24:02;;;;;;;13.13;8.90;;;2.30;66.10;;;5.04;49.54;102054.44;5053885;28;20274;-55
2022/12/19 00:26:33;;;;;;;12.67;9.20;;;2.30;66.10;;;5.08;49.42;102057.69;5055044;28;20215;-53
2022/12/19 00:29:04;;;;;;;17.47;10.20;;;2.40;66.20;;;5.05;50.69;102053.53;5055411;28;20212;-55
2022/12/19 00:31:39;;;;;;;16.03;10.57;;;2.40;66.20;;;5.08;49.43;102049.88;5053624;28;20249;-54
2022/12/19 00:34:08;;;;;;;16.00;10.23;;;2.40;66.20;;;5.12;50.06;102044.34;5053549;28;20609;-54
2022/12/19 00:36:35;;;;;;;15.97;10.70;;;2.40;66.20;;;5.13;50.61;102040.78;5053140;28;20206;-54
2022/12/19 00:39:04;;;;;;;16.13;10.23;;;2.50;66.20;;;5.19;49.72;102042.97;5052420;28;20280;-55
2022/12/19 00:41:37;;;;;;;17.70;10.63;;;2.50;66.20;;;5.22;49.68;102047.97;5053678;28;20231;-54
2022/12/19 00:44:15;;;;;;;15.53;10.07;;;2.50;66.20;;;5.19;50.86;102048.19;5053718;28;20196;-55
2022/12/19 00:46:43;;;;;;;18.07;10.73;;;2.50;66.40;;;5.23;49.91;102035.75;5053274;28;20247;-53
2022/12/19 00:49:19;;;;;;;18.63;11.93;;;2.60;66.60;;;5.21;50.74;102038.47;5053213;28;20222;-55
2022/12/19 00:51:46;;;;;;;19.03;12.10;;;2.60;67.00;;;5.21;50.77;102041.06;5053241;28;20297;-52
2022/12/19 00:54:13;;;;;;;18.30;11.67;;;2.60;67.30;;;5.12;51.86;102040.88;5053424;28;20234;-53
2022/12/19 00:56:41;;;;;;;18.93;12.20;;;2.60;68.40;;;5.14;53.19;102028.56;5053297;28;20185;-54
2022/12/19 00:59:09;;;;;;;18.40;11.97;;;2.60;69.00;;;5.13;53.28;102022.53;5052872;28;20215;-55
2022/12/19 01:01:39;;;;;;;19.27;12.23;;;2.60;69.70;;;5.12;53.28;102020.84;5053158;28;20226;-52
2022/12/19 01:04:13;;;;;;;17.90;11.93;;;2.60;70.30;;;5.17;52.94;102013.53;5053619;28;20269;-54
2022/12/19 01:06:58;;;;;;;17.97;11.43;;;2.60;70.50;;;5.22;53.58;102011.44;5052107;28;20562;-52
2022/12/19 01:09:29;;;;;;;21.63;13.17;;;2.60;71.10;;;5.21;54.67;101999.31;5052721;28;20264;-54
2022/12/19 01:14:43;;;;;;;17.30;12.73;;;2.60;71.90;;;5.24;55.27;101993.88;5053193;28;20245;-52
2022/12/19 01:17:10;;;;;;;19.57;12.70;;;2.70;73.00;;;5.19;54.95;101996.00;5053255;28;20196;-52
2022/12/19 01:19:39;;;;;;;19.77;13.33;;;2.70;73.30;;;5.21;55.48;101993.25;5052607;28;20211;-54
2022/12/19 01:22:10;;;;;;;23.00;13.90;;;2.70;73.40;;;5.15;55.51;101989.31;5052856;28;20662;-53
2022/12/19 01:24:37;;;;;;;19.10;13.93;;;2.60;73.90;;;5.16;56.20;101980.53;5053256;28;20197;-52
2022/12/19 01:27:04;;;;;;;23.00;13.90;;;2.70;74.00;;;5.21;56.86;101968.00;5052975;28;20260;-52
2022/12/19 01:29:31;;;;;;;25.57;14.83;;;2.70;74.30;;;5.21;56.23;101965.41;5052985;28;20245;-55
2022/12/19 01:32:01;;;;;;;23.77;14.50;;;2.70;74.80;;;5.16;56.67;101966.69;5053236;28;20199;-52
2022/12/19 01:34:28;;;;;;;22.63;14.90;;;2.70;75.00;;;5.18;56.49;101959.59;5052843;28;20191;-52
2022/12/19 01:36:57;;;;;;;22.03;14.27;;;2.70;75.00;;;5.14;56.96;101971.16;5052665;28;20203;-53
2022/12/19 01:39:24;;;;;;;22.20;14.47;;;2.70;75.30;;;5.17;57.50;101977.00;5051371;28;20268;-54
2022/12/19 01:41:53;;;;;;;21.20;13.73;;;2.70;75.50;;;5.14;57.54;101960.72;5053092;28;20195;-54
2022/12/19 01:44:24;;;;;;;23.00;14.53;;;2.70;75.70;;;5.16;58.26;101964.09;5052756;28;20244;-53
2022/12/19 01:46:58;;;;;;;23.63;14.87;;;2.80;75.90;;;5.17;57.93;101947.47;5052658;28;20674;-52
2022/12/19 01:49:30;;;;;;;22.80;14.20;;;2.80;76.20;;;5.21;57.98;101952.34;5052403;28;20824;-54
2022/12/19 01:52:05;;;;;;;21.93;14.47;;;2.80;76.00;;;5.27;57.12;101943.25;5052769;28;20257;-54
2022/12/19 01:54:36;;;;;;;24.03;14.67;;;2.80;76.00;;;5.20;57.52;101929.81;5052853;28;20237;-53
2022/12/19 01:57:09;;;;;;;25.43;14.73;;;2.80;76.60;;;5.22;58.10;101927.94;5052888;28;20260;-52
2022/12/19 01:59:44;;;;;;;22.43;14.73;;;2.80;76.50;;;5.27;58.06;101925.81;5061414;28;20695;-54
2022/12/19 02:02:18;;;;;;;23.80;15.63;;;2.80;76.50;;;5.30;57.50;101915.16;5052664;28;20200;-54
2022/12/19 02:04:47;;;;;;;19.50;13.07;;;2.90;76.70;;;5.35;58.04;101918.25;5052627;28;20647;-53
2022/12/19 02:07:19;;;;;;;23.27;14.70;;;2.90;76.70;;;5.44;58.48;101912.34;5052728;28;20283;-53
2022/12/19 02:09:52;;;;;;;22.47;14.37;;;2.90;76.70;;;5.41;57.67;101911.75;5052294;28;20216;-55
2022/12/19 02:12:25;;;;;;;22.60;14.80;;;2.90;77.00;;;5.39;57.68;101914.50;5052643;28;20200;-54
2022/12/19 02:14:55;;;;;;;24.30;15.67;;;2.90;77.00;;;5.41;57.97;101912.59;5052793;28;20221;-53
2022/12/19 02:17:43;;;;;;;23.37;13.97;;;2.90;77.30;;;5.42;57.92;101902.97;5054890;28;20278;-52
2022/12/19 02:20:41;;;;;;;22.47;14.90;;;2.90;77.30;;;5.38;57.94;101897.16;5056049;28;20275;-51
2022/12/19 02:23:53;;;;;;;23.30;13.87;;;2.90;77.70;;;5.38;58.39;101905.00;5056533;28;20180;-52
2022/12/19 02:26:48;;;;;;;25.13;16.30;;;2.90;77.70;;;5.40;58.24;101895.25;5056367;28;20203;-53
2022/12/19 02:30:00;;;;;;;22.90;13.93;;;3.00;77.90;;;5.38;58.60;101901.53;5055534;28;20225;-52
2022/12/19 02:32:40;;;;;;;23.47;14.60;;;3.00;78.20;;;5.39;59.26;101898.00;5056252;28;20195;-52
2022/12/19 02:35:17;;;;;;;24.50;16.00;;;3.00;78.20;;;5.40;58.41;101895.25;5055977;28;20187;-53
2022/12/19 02:37:53;;;;;;;24.40;15.43;;;3.00;78.50;;;5.45;59.13;101887.94;5054989;28;20251;-52
2022/12/19 02:40:30;;;;;;;23.10;14.10;;;3.00;78.70;;;5.46;59.08;101876.56;5055569;28;20211;-54
2022/12/19 02:43:02;;;;;;;22.87;15.07;;;3.00;78.80;;;5.45;60.38;101874.03;5055853;28;20197;-55
2022/12/19 02:45:36;;;;;;;23.27;16.03;;;3.00;79.20;;;5.48;59.87;101872.06;5055279;28;20662;-54
2022/12/19 02:48:07;;;;;;;21.73;13.87;;;3.00;79.30;;;5.54;60.11;101865.53;5055893;28;20196;-54
2022/12/19 02:50:42;;;;;;;22.43;14.13;;;3.10;79.30;;;5.56;59.36;101868.88;5055684;28;20211;-52
2022/12/19 02:53:12;;;;;;;25.17;14.73;;;3.10;79.50;;;5.62;60.47;101867.56;5055838;28;20210;-52
2022/12/19 02:55:48;;;;;;;27.00;16.50;;;3.10;79.60;;;5.65;58.90;101864.72;5055564;28;20185;-52
2022/12/19 02:58:43;;;;;;;23.03;14.27;;;3.10;79.60;;;5.65;60.22;101872.56;5055773;28;20205;-54
2022/12/19 03:01:35;;;;;;;24.50;14.00;;;3.10;79.80;;;5.73;60.07;101875.44;5055798;28;20208;-55
2022/12/19 03:04:16;;;;;;;24.53;15.17;;;3.20;79.70;;;5.75;59.35;101876.16;5055496;28;20198;-53
2022/12/19 03:06:51;;;;;;;23.83;15.33;;;3.20;80.00;;;5.68;60.56;101878.38;5055735;28;20213;-52
2022/12/19 03:09:30;;;;;;;24.70;14.53;;;3.20;80.30;;;5.69;60.00;101874.84;5055256;28;20211;-52
2022/12/19 03:12:07;;;;;;;26.97;15.70;;;3.20;80.30;;;5.72;59.94;101863.31;5070899;28;20220;-52
2022/12/19 03:14:39;;;;;;;22.47;14.67;;;3.20;80.40;;;5.80;59.91;101858.38;5055292;28;20235;-51
2022/12/19 03:17:07;;;;;;;21.47;14.40;;;3.30;80.30;;;5.89;60.28;101849.84;5055161;28;20190;-53
2022/12/19 03:19:39;;;;;;;26.10;15.53;;;3.30;80.20;;;5.89;60.11;101849.84;5054892;28;20695;-53
2022/12/19 03:22:07;;;;;;;23.97;15.00;;;3.30;80.40;;;5.93;59.67;101856.50;5055151;28;20235;-53
2022/12/19 03:24:34;;;;;;;28.03;16.57;;;3.30;80.40;;;5.93;60.27;101851.28;5054955;28;20220;-54
2022/12/19 03:27:08;;;;;;;24.37;15.63;;;3.40;80.60;;;6.00;59.53;101852.47;5058101;28;20214;-53
2022/12/19 03:29:44;;;;;;;23.27;14.67;;;3.40;80.40;;;6.04;59.30;101848.66;5062993;28;20221;-55
2022/12/19 03:32:14;;;;;;;21.87;14.70;;;3.40;80.50;;;6.10;59.95;101835.97;5062138;28;20182;-53
2022/12/19 03:34:46;;;;;;;22.97;15.73;;;3.50;80.60;;;6.12;59.96;101831.47;5061494;28;20225;-54
2022/12/19 03:37:19;;;;;;;21.13;14.03;;;3.50;80.50;;;6.19;59.12;101831.81;5060396;28;20202;-55
2022/12/19 03:39:51;;;;;;;20.73;14.43;;;3.50;80.40;;;6.25;59.02;101820.91;5059290;28;20263;-53
2022/12/19 03:45:15;;;;;;;27.60;16.03;;;3.60;80.40;;;6.30;59.03;101818.72;5064515;28;20274;-56
2022/12/19 03:47:49;;;;;;;21.73;14.23;;;3.60;80.40;;;6.34;59.76;101814.94;5044585;28;20203;-54
2022/12/19 03:50:22;;;;;;;23.30;14.60;;;3.70;80.40;;;6.40;59.52;101809.22;5044602;28;20316;-53
2022/12/19 03:53:05;;;;;;;20.57;14.03;;;3.70;80.50;;;6.35;60.08;101806.13;5043335;28;20200;-56
2022/12/19 03:55:41;;;;;;;23.13;14.67;;;3.70;80.60;;;6.38;59.74;101805.06;5045929;28;20263;-52
2022/12/19 03:58:14;;;;;;;24.53;14.93;;;3.70;80.50;;;6.41;60.00;101799.59;5045381;28;20195;-55
2022/12/19 04:00:46;;;;;;;24.17;14.63;;;3.70;80.60;;;6.40;59.92;101804.00;5044257;28;20250;-56
2022/12/19 04:03:16;;;;;;;25.27;15.60;;;3.80;80.70;;;6.43;59.74;101795.91;5040357;28;20253;-55
2022/12/19 04:05:47;;;;;;;22.47;15.20;;;3.80;80.60;;;6.48;60.09;101801.59;5039047;28;20196;-56
2022/12/19 04:08:15;;;;;;;23.30;15.20;;;3.80;80.40;;;6.53;59.45;101793.41;5037936;28;20201;-55
2022/12/19 04:10:50;;;;;;;23.63;14.80;;;3.90;80.60;;;6.55;59.93;101784.47;5039051;28;20574;-55
2022/12/19 04:13:24;;;;;;;21.37;13.97;;;3.90;80.70;;;6.58;59.24;101775.56;5043128;28;20191;-52
2022/12/19 04:16:06;;;;;;;20.17;13.83;;;3.90;80.50;;;6.57;59.18;101779.94;5046070;28;20183;-54
2022/12/19 04:18:36;;;;;;;24.17;16.00;;;3.90;80.80;;;6.56;59.57;101772.25;5047724;28;20215;-54
2022/12/19 04:21:12;;;;;;;24.77;15.83;;;3.90;81.00;;;6.50;60.15;101773.56;5051140;28;20226;-54
2022/12/19 04:23:46;;;;;;;23.50;14.50;;;3.90;81.10;;;6.55;59.99;101771.41;5058609;28;20629;-53
2022/12/19 04:26:17;;;;;;;25.40;14.93;;;4.00;81.10;;;6.60;59.92;101758.78;5059030;28;20217;-55
2022/12/19 04:28:51;;;;;;;22.67;14.40;;;4.00;81.30;;;6.63;60.25;101763.75;5059228;28;20211;-57
2022/12/19 04:31:20;;;;;;;24.30;14.30;;;4.00;81.40;;;6.67;59.87;101751.28;5058166;28;20241;-52
2022/12/19 04:33:47;;;;;;;22.67;15.50;;;4.00;81.40;;;6.67;59.99;101753.88;5054864;28;20192;-55
2022/12/19 04:36:16;;;;;;;24.17;15.23;;;4.10;81.70;;;6.66;60.07;101746.97;5056550;28;20202;-54
2022/12/19 04:38:43;;;;;;;26.83;16.47;;;4.10;81.70;;;6.66;60.80;101752.22;5054550;28;20303;-55
2022/12/19 04:41:10;;;;;;;25.47;15.20;;;4.00;82.00;;;6.69;60.82;101742.34;5057284;28;20191;-52
2022/12/19 04:43:37;;;;;;;26.93;16.27;;;4.10;81.90;;;6.64;61.54;101743.66;5058932;28;20226;-52
2022/12/19 04:46:04;;;;;;;26.30;16.50;;;4.10;82.30;;;6.67;60.84;101728.56;5057055;28;20203;-55
2022/12/19 04:48:34;;;;;;;26.87;16.53;;;4.10;82.30;;;6.70;61.31;101712.59;5056033;28;20679;-56
2022/12/19 04:51:01;;;;;;;23.17;15.17;;;4.10;82.30;;;6.77;61.05;101713.75;5055933;28;20224;-56
2022/12/19 04:53:31;;;;;;;26.23;16.33;;;4.20;82.30;;;6.75;60.70;101720.91;5055683;28;20548;-54
2022/12/19 04:56:02;;;;;;;23.67;15.50;;;4.20;82.70;;;6.76;61.37;101712.13;5056328;28;20185;-55
2022/12/19 04:58:29;;;;;;;24.43;15.53;;;4.20;82.50;;;6.80;61.03;101712.69;5057364;28;20556;-53
2022/12/19 05:01:00;;;;;;;26.03;16.80;;;4.20;82.70;;;6.80;61.11;101691.75;5058480;28;20270;-54
2022/12/19 05:03:27;;;;;;;21.77;15.70;;;4.20;82.80;;;6.82;60.75;101706.38;5060490;28;20195;-56
2022/12/19 05:06:04;;;;;;;24.07;15.93;;;4.20;82.70;;;6.77;61.42;101702.50;5057971;28;20192;-55
2022/12/19 05:08:33;;;;;;;22.13;14.93;;;4.20;82.90;;;6.81;61.14;101699.50;5056434;28;20183;-55
2022/12/19 05:11:01;;;;;;;25.67;15.77;;;4.20;82.80;;;6.83;61.23;101692.34;5056717;28;20199;-55
2022/12/19 05:13:29;;;;;;;20.67;15.07;;;4.20;82.90;;;6.88;61.01;101688.50;5056589;28;20193;-56
2022/12/19 05:15:57;;;;;;;26.30;16.77;;;4.30;83.00;;;6.92;61.32;101687.31;5056948;28;20238;-55
2022/12/19 05:18:25;;;;;;;23.07;15.77;;;4.30;83.10;;;6.89;61.29;101685.78;5057780;28;20191;-52
2022/12/19 05:20:52;;;;;;;21.80;15.43;;;4.20;83.10;;;6.87;61.35;101685.06;5057596;28;20253;-55
2022/12/19 05:23:20;;;;;;;24.70;15.77;;;4.30;83.20;;;6.91;61.27;101683.03;5058871;28;20196;-55
2022/12/19 05:25:49;;;;;;;24.50;15.27;;;4.30;83.20;;;6.90;61.01;101674.34;5057138;28;20251;-55
2022/12/19 05:28:18;;;;;;;24.67;14.97;;;4.30;83.30;;;6.95;61.86;101668.72;5056847;28;20629;-53
2022/12/19 05:30:45;;;;;;;25.77;16.87;;;4.30;83.10;;;6.92;61.36;101659.34;5057510;28;20587;-55
2022/12/19 05:33:18;;;;;;;24.10;15.53;;;4.30;83.30;;;6.93;61.49;101670.63;5057824;28;20212;-54
2022/12/19 05:35:46;;;;;;;25.87;15.87;;;4.40;83.20;;;6.95;61.80;101671.34;5055847;28;20200;-55
2022/12/19 05:38:13;;;;;;;24.20;15.83;;;4.30;83.30;;;6.95;61.40;101663.50;5055762;28;20201;-56
2022/12/19 05:40:42;;;;;;;21.93;15.50;;;4.40;83.30;;;6.97;61.44;101674.66;5057558;28;20190;-56
2022/12/19 05:43:10;;;;;;;25.77;16.63;;;4.40;83.30;;;6.96;61.43;101673.00;5057482;28;20194;-56
2022/12/19 05:45:38;;;;;;;28.00;16.93;;;4.40;83.40;;;6.95;61.70;101658.25;5060403;28;20194;-54
2022/12/19 05:48:05;;;;;;;25.07;16.00;;;4.40;83.40;;;7.01;61.79;101663.00;5054083;28;20517;-52
2022/12/19 05:50:35;;;;;;;28.30;16.57;;;4.40;83.40;;;7.04;61.18;101658.31;5053702;28;20310;-54
2022/12/19 05:53:02;;;;;;;24.53;16.90;;;4.40;83.40;;;7.03;61.19;101650.59;5056612;28;20198;-53
2022/12/19 05:55:29;;;;;;;25.77;16.63;;;4.40;83.40;;;7.01;61.68;101655.13;5057088;28;20206;-52
2022/12/19 05:57:56;;;;;;;26.70;16.37;;;4.40;83.50;;;6.95;62.00;101647.78;5060279;28;20193;-54
2022/12/19 06:00:24;;;;;;;25.73;15.97;;;4.40;83.50;;;6.94;62.04;101646.16;5058038;28;20226;-53
2022/12/19 06:02:51;;;;;;;25.97;16.40;;;4.40;83.60;;;6.97;61.88;101638.00;5056421;28;20199;-55
2022/12/19 06:05:18;;;;;;;25.43;16.90;;;4.40;83.60;;;7.01;62.23;101634.22;5056591;28;20197;-52
2022/12/19 06:07:45;;;;;;;21.83;14.40;;;4.50;83.50;;;7.11;61.48;101637.69;5056468;28;20616;-53
2022/12/19 06:10:13;;;;;;;27.67;16.00;;;4.50;83.40;;;7.16;61.23;101625.88;5055848;28;20234;-52
2022/12/19 06:12:40;;;;;;;25.23;15.80;;;4.50;83.50;;;7.20;61.35;101631.69;5056317;28;20214;-53
2022/12/19 06:15:08;;;;;;;23.57;14.60;;;4.50;83.30;;;7.22;61.45;101629.75;5056273;28;20678;-53
2022/12/19 06:17:36;;;;;;;24.47;15.50;;;4.60;83.40;;;7.18;61.13;101623.16;5056243;28;20658;-52
2022/12/19 06:20:05;;;;;;;25.37;15.43;;;4.60;83.40;;;7.18;61.63;101620.53;5055413;28;20224;-52
2022/12/19 06:22:33;;;;;;;26.73;16.90;;;4.60;83.50;;;7.16;61.72;101630.28;5056149;28;20225;-54
2022/12/19 06:25:00;;;;;;;26.23;16.17;;;4.60;83.70;;;7.20;61.66;101615.97;5055917;28;20196;-53
2022/12/19 06:27:27;;;;;;;25.60;15.63;;;4.70;83.70;;;7.22;61.69;101619.28;5055849;28;20238;-54
2022/12/19 06:29:54;;;;;;;26.83;17.53;;;4.60;83.90;;;7.24;61.82;101615.59;5055766;28;20218;-54
2022/12/19 06:32:21;;;;;;;23.50;16.43;;;4.70;84.00;;;7.24;62.08;101606.91;5055755;28;20200;-53
2022/12/19 06:34:50;;;;;;;23.83;15.47;;;4.70;84.00;;;7.25;62.46;101609.38;5055244;28;20238;-53
2022/12/19 06:37:32;;;;;;;26.47;16.27;;;4.70;84.60;;;7.26;62.01;101615.44;5054799;28;20217;-59
2022/12/19 06:39:59;;;;;;;25.47;16.40;;;4.70;84.40;;;7.30;62.30;101601.13;5055452;28;20705;-54
2022/12/19 06:42:26;;;;;;;24.13;15.73;;;4.70;84.60;;;7.31;62.56;101593.16;5055961;28;20227;-53
2022/12/19 06:44:54;;;;;;;22.47;15.67;;;4.70;84.80;;;7.29;62.77;101596.88;5055849;28;20203;-53
2022/12/19 06:47:23;;;;;;;23.00;15.70;;;4.70;85.00;;;7.20;63.27;101595.03;5055439;28;20227;-53
2022/12/19 06:49:52;;;;;;;24.53;16.33;;;4.70;85.50;;;7.21;63.64;101591.44;5055659;28;20763;-53
2022/12/19 06:52:19;;;;;;;24.77;16.53;;;4.70;85.50;;;7.23;63.20;101590.34;5055911;28;20617;-54
2022/12/19 06:54:46;;;;;;;28.77;17.47;;;4.70;85.60;;;7.14;63.82;101579.84;5056376;28;20247;-53
2022/12/19 06:57:13;;;;;;;29.43;18.33;;;4.70;86.30;;;7.07;64.33;101589.19;5056767;28;20191;-53
2022/12/19 06:59:40;;;;;;;24.00;16.70;;;4.60;86.60;;;7.11;64.21;101593.19;5054996;28;20211;-56
2022/12/19 07:02:22;;;;;;;27.33;16.73;;;4.60;86.40;;;7.14;63.85;101590.31;5055595;28;20195;-53
2022/12/19 07:05:00;;;;;;;23.47;15.53;;;4.70;86.60;;;7.14;64.54;101595.56;5054258;28;20171;-56
2022/12/19 07:07:28;;;;;;;23.33;15.60;;;4.60;87.00;;;7.14;64.84;101590.31;5052336;28;20229;-53
2022/12/19 07:09:55;;;;;;;28.70;17.63;;;4.70;87.20;;;7.15;65.05;101586.75;5046687;28;20224;-52
2022/12/19 07:12:22;;;;;;;25.17;16.70;;;4.60;87.30;;;7.15;64.95;101597.22;5054845;28;20205;-54
2022/12/19 07:14:49;;;;;;;23.63;16.73;;;4.70;87.40;;;7.10;65.14;101594.16;5055372;28;20258;-52
2022/12/19 07:17:22;;;;;;;33.53;18.43;;;4.60;87.70;;;7.04;65.38;101594.66;5051122;28;20212;-52
2022/12/19 07:19:53;;;;;;;26.57;16.80;;;4.60;88.00;;;7.05;65.36;101593.72;5055359;28;20215;-53
2022/12/19 07:22:21;;;;;;;25.73;15.70;;;4.60;88.10;;;7.11;65.34;101590.56;5050671;28;20275;-52
2022/12/19 07:24:48;;;;;;;25.90;16.53;;;4.70;88.00;;;7.14;65.15;101595.56;5047945;28;20264;-54
2022/12/19 07:27:15;;;;;;;25.67;17.50;;;4.70;88.00;;;7.16;65.21;101593.63;5055443;28;20274;-51
2022/12/19 07:29:42;;;;;;;28.73;18.00;;;4.70;88.30;;;7.13;65.95;101593.91;5054601;28;20743;-53
2022/12/19 07:32:09;;;;;;;25.00;16.27;;;4.60;88.40;;;7.16;65.70;101607.53;5055589;28;20677;-55
2022/12/19 07:34:36;;;;;;;29.50;17.93;;;4.70;88.40;;;7.17;65.48;101597.91;5052543;28;20210;-55
2022/12/19 07:37:05;;;;;;;28.47;17.23;;;4.60;88.50;;;7.15;65.54;101605.06;5045696;28;20198;-53
2022/12/19 07:39:32;;;;;;;26.60;17.60;;;4.70;89.50;;;7.11;66.42;101601.03;5053771;28;20630;-53
2022/12/19 07:41:59;;;;;;;30.27;18.57;;;4.70;88.80;;;7.12;66.26;101600.09;5055694;28;20193;-55
2022/12/19 07:44:26;;;;;;;26.67;16.40;;;4.70;88.90;;;7.09;66.62;101597.72;5055131;28;20653;-53
2022/12/19 07:46:53;;;;;;;30.70;18.83;;;4.60;89.10;;;7.08;66.65;101593.47;5056060;28;20191;-54
2022/12/19 07:49:20;;;;;;;32.20;19.70;;;4.60;89.30;;;7.08;66.09;101596.09;5054449;28;20227;-54
2022/12/19 07:51:49;;;;;;;27.00;17.13;;;4.70;89.30;;;7.15;66.16;101592.81;5054826;28;20207;-52
2022/12/19 07:54:18;;;;;;;28.83;18.57;;;4.70;89.10;;;7.17;66.53;101579.59;5054266;28;20202;-54
2022/12/19 07:56:45;;;;;;;26.53;17.17;;;4.70;89.50;;;7.21;65.97;101580.97;5055097;28;20211;-55
2022/12/19 07:59:12;;;;;;;27.73;17.13;;;4.70;89.30;;;7.22;66.53;101585.25;5054715;28;20246;-55
2022/12/19 08:01:39;;;;;;;29.40;19.07;;;4.70;89.50;;;7.23;66.76;101590.34;5054514;28;20211;-53
2022/12/19 08:04:06;;;;;;;27.67;18.40;;;4.70;89.70;;;7.14;66.71;101574.59;5054389;28;20559;-57
2022/12/19 08:06:34;;;;;;;30.60;18.40;;;4.70;89.90;;;7.21;66.60;101580.97;5053996;28;20191;-53
2022/12/19 08:09:07;;;;;;;30.63;19.70;;;4.70;89.70;;;7.15;66.80;101591.97;5053577;28;20223;-53
2022/12/19 08:11:35;;;;;;;27.43;18.13;;;4.70;90.00;;;7.13;67.14;101583.44;5055420;28;20197;-51
2022/12/19 08:14:02;;;;;;;30.47;19.63;;;4.70;90.00;;;7.07;67.32;101581.31;5055653;28;20184;-54
2022/12/19 08:16:30;;;;;;;34.37;20.13;;;4.70;90.10;;;7.08;66.92;101564.69;5054645;28;20530;-54
2022/12/19 08:18:57;;;;;;;27.87;18.77;;;4.70;90.10;;;7.15;66.77;101581.50;5053958;28;20829;-57
2022/12/19 08:21:24;;;;;;;30.43;19.27;;;4.70;90.10;;;7.18;67.22;101566.34;5055838;28;20222;-55
2022/12/19 08:23:51;;;;;;;26.97;19.00;;;4.70;90.10;;;7.25;66.72;101582.38;5054567;28;20692;-53
2022/12/19 08:26:24;;;;;;;29.70;19.77;;;4.70;90.10;;;7.19;66.87;101568.03;5053696;28;20248;-52
2022/12/19 08:28:55;;;;;;;30.07;18.87;;;4.80;90.20;;;7.27;66.80;101570.78;5054174;28;20721;-55
2022/12/19 08:31:24;;;;;;;29.23;18.60;;;4.70;90.10;;;7.31;66.81;101581.84;5053841;28;20663;-55
2022/12/19 08:33:55;;;;;;;32.40;20.03;;;4.70;90.10;;;7.26;66.73;101570.94;5053922;28;20195;-54
2022/12/19 08:36:23;;;;;;;30.70;20.40;;;4.80;90.20;;;7.31;67.08;101581.84;5053911;28;20204;-54
2022/12/19 08:38:51;;;;;;;30.63;19.80;;;4.80;90.10;;;7.32;67.03;101568.59;5053086;28;20295;-55
2022/12/19 08:41:19;;;;;;;30.07;18.77;;;4.80;90.20;;;7.38;66.57;101575.13;5055337;28;20195;-54
2022/12/19 08:43:50;;;;;;;31.63;20.10;;;4.80;90.10;;;7.33;67.06;101572.06;5054251;28;20534;-52
2022/12/19 08:46:19;;;;;;;31.63;19.60;;;4.80;90.20;;;7.38;66.63;101568.09;5053533;28;20204;-55
2022/12/19 08:48:53;;;;;;;27.73;18.47;;;4.90;90.20;;;7.43;66.68;101567.69;5054133;28;20577;-55
2022/12/19 08:51:19;;;;;;;29.40;19.27;;;4.90;90.20;;;7.42;66.89;101555.53;5054246;28;20187;-52
2022/12/19 08:53:47;;;;;;;32.97;19.73;;;4.90;90.30;;;7.41;67.35;101569.63;5054616;28;20194;-52
2022/12/19 08:56:17;;;;;;;27.30;19.33;;;4.90;90.30;;;7.40;67.23;101560.09;5058440;28;20209;-51
2022/12/19 08:58:44;;;;;;;29.03;18.83;;;4.90;90.30;;;7.45;67.32;101557.91;5037872;28;20680;-53
2022/12/19 09:01:19;;;;;;;29.27;19.40;;;4.90;90.30;;;7.38;67.58;101562.03;5047784;28;20216;-54
2022/12/19 09:03:46;;;;;;;31.63;18.43;;;4.90;90.40;;;7.43;67.16;101554.59;5033681;28;20305;-52
2022/12/19 09:06:33;;;;;;;30.67;19.90;;;5.00;90.40;;;7.39;67.56;101561.06;5033549;28;20234;-53
2022/12/19 09:09:02;;;;;;;30.23;18.83;;;4.90;90.50;;;7.38;67.71;101546.31;5039670;28;20245;-52
2022/12/19 09:11:30;;;;;;;31.90;21.40;;;5.00;90.60;;;7.43;67.40;101554.59;5052031;28;20200;-53
2022/12/19 09:13:57;;;;;;;31.20;20.83;;;5.00;90.50;;;7.40;67.94;101549.63;5046108;28;20672;-54
2022/12/19 09:16:28;;;;;;;31.20;20.40;;;5.00;90.60;;;7.39;68.16;101563.69;5052357;28;20209;-52
2022/12/19 09:18:59;;;;;;;31.10;20.17;;;5.00;90.60;;;7.46;68.10;101555.13;5042981;28;20285;-52
2022/12/19 09:21:31;;;;;;;28.70;19.03;;;5.00;90.60;;;7.56;67.20;101560.41;5044622;28;20294;-53
2022/12/19 09:23:59;;;;;;;29.70;19.63;;;5.10;90.60;;;7.50;67.93;101550.47;5044183;28;20208;-55
2022/12/19 09:26:37;;;;;;;28.90;18.87;;;5.00;90.70;;;7.58;67.90;101547.19;5047831;28;20676;-55
2022/12/19 09:29:05;;;;;;;27.67;19.40;;;5.10;90.70;;;7.64;68.04;101557.94;5050962;28;20306;-55
2022/12/19 09:31:49;;;;;;;29.87;19.57;;;5.10;90.80;;;7.64;67.68;101547.47;5046784;28;20263;-52
2022/12/19 09:34:24;;;;;;;28.43;19.37;;;5.10;90.70;;;7.65;67.79;101549.13;5049883;28;20285;-53
2022/12/19 09:37:05;;;;;;;28.93;19.37;;;5.20;90.80;;;7.68;67.97;101538.38;5042862;28;20207;-53
2022/12/19 09:39:33;;;;;;;27.53;19.37;;;5.20;90.80;;;7.65;68.31;101532.59;5046133;28;20217;-53
2022/12/19 09:42:22;;;;;;;30.47;20.17;;;5.20;90.90;;;7.68;67.94;101535.75;5044346;28;20629;-56
2022/12/19 09:45:16;;;;;;;28.23;18.77;;;5.20;90.90;;;7.75;67.72;101539.47;5047087;28;20217;-53
2022/12/19 09:47:57;;;;;;;29.40;18.50;;;5.30;90.90;;;7.82;67.66;101537.97;5049379;28;20218;-55
2022/12/19 09:50:45;;;;;;;26.70;18.23;;;5.30;90.90;;;7.82;67.71;101532.72;5043322;28;20263;-53
2022/12/19 09:53:24;;;;;;;29.03;18.20;;;5.30;91.00;;;7.82;68.12;101524.88;5047101;28;20198;-53
2022/12/19 09:55:53;;;;;;;31.57;19.93;;;5.30;91.10;;;7.86;68.12;101514.94;5039444;28;20187;-54
2022/12/19 09:58:33;;;;;;;27.20;18.23;;;5.40;91.20;;;7.89;68.34;101519.94;5038128;28;20192;-53
2022/12/19 10:01:07;;;;;;;25.93;17.63;;;5.40;91.20;;;7.92;68.51;101509.97;5047676;28;20184;-53
2022/12/19 10:03:40;;;;;;;27.47;18.37;;;5.50;91.30;;;8.01;68.53;101519.63;5036745;28;20227;-53
2022/12/19 10:06:17;;;;;;;26.97;19.07;;;5.50;91.40;;;7.97;68.79;101517.41;5045059;28;20183;-53
2022/12/19 10:09:18;;;;;;;26.77;18.53;;;5.50;91.40;;;8.05;68.99;101520.19;5053926;28;20238;-55
2022/12/19 10:12:25;;;;;;;21.87;16.13;;;5.60;91.50;;;7.98;69.04;101525.16;5036832;28;20191;-53
2022/12/19 10:15:26;;;;;;;21.47;16.30;;;5.60;91.50;;;8.05;69.53;101520.19;5052276;28;20655;-52
2022/12/19 10:18:25;;;;;;;20.77;16.23;;;5.70;91.60;;;8.17;68.71;101522.53;5036548;28;20217;-54
2022/12/19 10:21:04;;;;;;;22.23;15.70;;;5.80;91.70;;;8.28;68.83;101510.25;5047047;28;20209;-55
2022/12/19 10:24:10;;;;;;;24.07;16.97;;;5.80;91.70;;;8.38;68.72;101511.06;5051053;28;20192;-54
2022/12/19 10:26:49;;;;;;;22.97;16.23;;;5.90;91.70;;;8.41;68.85;101510.78;5032214;28;20207;-54
2022/12/19 10:29:55;;;;;;;19.80;16.00;;;6.00;91.70;;;8.43;69.14;101500.97;5058381;28;20239;-53
2022/12/19 10:32:36;;;;;;;20.50;15.10;;;6.00;91.70;;;8.54;68.89;101500.81;5055786;28;20183;-53
2022/12/19 10:35:13;;;;;;;19.63;15.10;;;6.10;91.80;;;8.58;68.93;101504.81;5053299;28;20600;-55
2022/12/19 10:37:52;;;;;;;21.43;14.93;;;6.10;91.80;;;8.59;69.12;101503.81;5054259;28;20282;-54
2022/12/19 10:40:29;;;;;;;19.60;13.77;;;6.20;91.90;;;8.60;69.56;101505.50;5054621;28;20220;-56